sensor_id;sensor_type;location;lat;lon;timestamp;temperature;humidity
25949;DHT22;13961;51.178;4.448;2023-03-13T00:01:00;11.20;99.90
25949;DHT22;13961;51.178;4.448;2023-03-13T00:03:26;11.20;99.90
25949;DHT22;13961;51.178;4.448;2023-03-13T00:05:57;11.10;99.90
25949;DHT22;13961;51.178;4.448;2023-03-13T00:08:24;11.20;99.90
25949;DHT22;13961;51.178;4.448;2023-03-13T00:10:50;11.20;99.90
25949;DHT22;13961;51.178;4.448;2023-03-13T00:13:16;11.10;99.90
25949;DHT22;13961;51.178;4.448;2023-03-13T00:15:42;11.20;99.90
25949;DHT22;13961;51.178;4.448;2023-03-13T00:18:07;11.20;99.90
25949;DHT22;13961;51.178;4.448;2023-03-13T00:20:33;11.20;99.90
25949;DHT22;13961;51.178;4.448;2023-03-13T00:22:59;11.30;99.90
25949;DHT22;13961;51.178;4.448;2023-03-13T00:25:25;11.30;99.90
25949;DHT22;13961;51.178;4.448;2023-03-13T00:27:50;11.30;99.90
25949;DHT22;13961;51.178;4.448;2023-03-13T00:30:16;11.40;99.90
25949;DHT22;13961;51.178;4.448;2023-03-13T00:32:43;11.40;99.90
25949;DHT22;13961;51.178;4.448;2023-03-13T00:35:11;11.40;99.90
25949;DHT22;13961;51.178;4.448;2023-03-13T00:37:37;11.40;99.90
25949;DHT22;13961;51.178;4.448;2023-03-13T00:40:04;11.40;99.90
25949;DHT22;13961;51.178;4.448;2023-03-13T00:42:30;11.40;99.90
25949;DHT22;13961;51.178;4.448;2023-03-13T00:44:56;11.40;99.90
25949;DHT22;13961;51.178;4.448;2023-03-13T00:47:21;11.40;99.90
25949;DHT22;13961;51.178;4.448;2023-03-13T00:49:47;11.40;99.90
25949;DHT22;13961;51.178;4.448;2023-03-13T00:52:13;11.50;99.90
25949;DHT22;13961;51.178;4.448;2023-03-13T00:54:40;11.50;99.90
25949;DHT22;13961;51.178;4.448;2023-03-13T00:57:05;11.60;99.90
25949;DHT22;13961;51.178;4.448;2023-03-13T00:59:31;11.60;99.90
25949;DHT22;13961;51.178;4.448;2023-03-13T01:01:57;11.70;99.90
25949;DHT22;13961;51.178;4.448;2023-03-13T01:04:23;11.70;99.90
25949;DHT22;13961;51.178;4.448;2023-03-13T01:06:49;11.70;99.90
25949;DHT22;13961;51.178;4.448;2023-03-13T01:09:15;11.80;99.90
25949;DHT22;13961;51.178;4.448;2023-03-13T01:11:43;11.80;99.90
25949;DHT22;13961;51.178;4.448;2023-03-13T01:14:13;11.90;99.90
25949;DHT22;13961;51.178;4.448;2023-03-13T01:16:39;11.80;99.90
25949;DHT22;13961;51.178;4.448;2023-03-13T01:19:09;11.80;99.90
25949;DHT22;13961;51.178;4.448;2023-03-13T01:21:35;11.90;99.90
25949;DHT22;13961;51.178;4.448;2023-03-13T01:24:01;11.90;99.90
25949;DHT22;13961;51.178;4.448;2023-03-13T01:26:27;11.90;99.90
25949;DHT22;13961;51.178;4.448;2023-03-13T01:28:54;12.00;99.90
25949;DHT22;13961;51.178;4.448;2023-03-13T01:33:48;12.00;99.90
25949;DHT22;13961;51.178;4.448;2023-03-13T01:36:14;12.00;99.90
25949;DHT22;13961;51.178;4.448;2023-03-13T01:38:40;12.00;99.90
25949;DHT22;13961;51.178;4.448;2023-03-13T01:41:07;11.90;99.90
25949;DHT22;13961;51.178;4.448;2023-03-13T01:43:35;12.10;99.90
25949;DHT22;13961;51.178;4.448;2023-03-13T01:49:04;12.20;99.90
25949;DHT22;13961;51.178;4.448;2023-03-13T01:51:51;12.20;99.90
25949;DHT22;13961;51.178;4.448;2023-03-13T01:54:23;12.20;99.90
25949;DHT22;13961;51.178;4.448;2023-03-13T01:56:58;12.30;99.90
25949;DHT22;13961;51.178;4.448;2023-03-13T01:59:34;12.30;99.90
25949;DHT22;13961;51.178;4.448;2023-03-13T02:02:02;12.40;99.90
25949;DHT22;13961;51.178;4.448;2023-03-13T02:04:33;12.40;99.90
25949;DHT22;13961;51.178;4.448;2023-03-13T02:07:04;12.40;99.90
25949;DHT22;13961;51.178;4.448;2023-03-13T02:09:33;12.40;99.90
25949;DHT22;13961;51.178;4.448;2023-03-13T02:12:12;12.50;99.90
25949;DHT22;13961;51.178;4.448;2023-03-13T02:14:41;12.50;99.90
25949;DHT22;13961;51.178;4.448;2023-03-13T02:17:08;12.50;99.90
25949;DHT22;13961;51.178;4.448;2023-03-13T02:19:44;12.60;99.90
25949;DHT22;13961;51.178;4.448;2023-03-13T02:22:38;12.60;99.90
25949;DHT22;13961;51.178;4.448;2023-03-13T02:30:20;12.50;99.90
25949;DHT22;13961;51.178;4.448;2023-03-13T02:32:46;12.60;99.90
25949;DHT22;13961;51.178;4.448;2023-03-13T02:35:14;12.70;99.90
25949;DHT22;13961;51.178;4.448;2023-03-13T02:37:47;12.70;99.90
25949;DHT22;13961;51.178;4.448;2023-03-13T02:40:17;12.60;99.90
25949;DHT22;13961;51.178;4.448;2023-03-13T02:42:45;12.70;99.90
25949;DHT22;13961;51.178;4.448;2023-03-13T02:45:14;12.70;99.90
25949;DHT22;13961;51.178;4.448;2023-03-13T02:47:40;12.80;99.90
25949;DHT22;13961;51.178;4.448;2023-03-13T02:50:06;12.90;99.90
25949;DHT22;13961;51.178;4.448;2023-03-13T02:52:36;12.90;99.90
25949;DHT22;13961;51.178;4.448;2023-03-13T02:55:18;12.90;99.90
25949;DHT22;13961;51.178;4.448;2023-03-13T02:57:47;12.90;99.90
25949;DHT22;13961;51.178;4.448;2023-03-13T03:00:13;12.80;99.90
25949;DHT22;13961;51.178;4.448;2023-03-13T03:02:41;12.90;99.90
25949;DHT22;13961;51.178;4.448;2023-03-13T03:05:08;13.00;99.90
25949;DHT22;13961;51.178;4.448;2023-03-13T03:07:34;13.00;99.90
25949;DHT22;13961;51.178;4.448;2023-03-13T03:09:59;13.00;99.90
25949;DHT22;13961;51.178;4.448;2023-03-13T03:12:25;13.10;99.90
25949;DHT22;13961;51.178;4.448;2023-03-13T03:14:51;13.10;99.90
25949;DHT22;13961;51.178;4.448;2023-03-13T03:17:16;13.10;99.90
25949;DHT22;13961;51.178;4.448;2023-03-13T03:19:42;13.00;99.90
25949;DHT22;13961;51.178;4.448;2023-03-13T03:22:08;13.10;99.90
25949;DHT22;13961;51.178;4.448;2023-03-13T03:24:34;13.10;99.90
25949;DHT22;13961;51.178;4.448;2023-03-13T03:26:59;13.10;99.90
25949;DHT22;13961;51.178;4.448;2023-03-13T03:29:25;13.20;99.90
25949;DHT22;13961;51.178;4.448;2023-03-13T03:31:52;13.30;99.90
25949;DHT22;13961;51.178;4.448;2023-03-13T03:34:18;13.30;99.90
25949;DHT22;13961;51.178;4.448;2023-03-13T03:36:44;13.30;99.90
25949;DHT22;13961;51.178;4.448;2023-03-13T03:39:10;13.40;99.90
25949;DHT22;13961;51.178;4.448;2023-03-13T03:41:35;13.30;99.90
25949;DHT22;13961;51.178;4.448;2023-03-13T03:44:02;13.30;99.90
25949;DHT22;13961;51.178;4.448;2023-03-13T03:46:28;13.40;99.90
25949;DHT22;13961;51.178;4.448;2023-03-13T03:48:55;13.40;99.90
25949;DHT22;13961;51.178;4.448;2023-03-13T03:51:21;13.50;99.90
25949;DHT22;13961;51.178;4.448;2023-03-13T03:53:48;13.50;99.90
25949;DHT22;13961;51.178;4.448;2023-03-13T03:56:14;13.60;99.90
25949;DHT22;13961;51.178;4.448;2023-03-13T03:58:39;13.50;99.90
25949;DHT22;13961;51.178;4.448;2023-03-13T04:01:05;13.50;99.90
25949;DHT22;13961;51.178;4.448;2023-03-13T04:03:31;13.50;99.90
25949;DHT22;13961;51.178;4.448;2023-03-13T04:05:57;13.60;99.90
25949;DHT22;13961;51.178;4.448;2023-03-13T04:08:23;13.60;99.90
25949;DHT22;13961;51.178;4.448;2023-03-13T04:10:49;13.60;99.90
25949;DHT22;13961;51.178;4.448;2023-03-13T04:13:14;13.60;99.90
25949;DHT22;13961;51.178;4.448;2023-03-13T04:15:40;13.50;99.90
25949;DHT22;13961;51.178;4.448;2023-03-13T04:18:06;13.60;99.90
25949;DHT22;13961;51.178;4.448;2023-03-13T04:20:32;13.60;99.90
25949;DHT22;13961;51.178;4.448;2023-03-13T04:22:58;13.70;99.90
25949;DHT22;13961;51.178;4.448;2023-03-13T04:25:24;13.60;99.90
25949;DHT22;13961;51.178;4.448;2023-03-13T04:27:50;13.70;99.90
25949;DHT22;13961;51.178;4.448;2023-03-13T04:30:15;13.70;99.90
25949;DHT22;13961;51.178;4.448;2023-03-13T04:32:41;13.70;99.90
25949;DHT22;13961;51.178;4.448;2023-03-13T04:35:07;13.70;99.90
25949;DHT22;13961;51.178;4.448;2023-03-13T04:37:33;13.70;99.90
25949;DHT22;13961;51.178;4.448;2023-03-13T04:39:58;13.50;99.90
25949;DHT22;13961;51.178;4.448;2023-03-13T04:42:24;13.70;99.90
25949;DHT22;13961;51.178;4.448;2023-03-13T04:44:50;13.70;99.90
25949;DHT22;13961;51.178;4.448;2023-03-13T04:47:15;13.80;99.90
25949;DHT22;13961;51.178;4.448;2023-03-13T04:49:41;13.80;99.90
25949;DHT22;13961;51.178;4.448;2023-03-13T04:52:07;13.70;99.90
25949;DHT22;13961;51.178;4.448;2023-03-13T04:54:33;13.70;99.90
25949;DHT22;13961;51.178;4.448;2023-03-13T04:56:58;13.70;99.90
25949;DHT22;13961;51.178;4.448;2023-03-13T04:59:24;13.80;99.90
25949;DHT22;13961;51.178;4.448;2023-03-13T05:01:50;13.80;99.90
25949;DHT22;13961;51.178;4.448;2023-03-13T05:04:15;13.80;99.90
25949;DHT22;13961;51.178;4.448;2023-03-13T05:06:41;13.80;99.90
25949;DHT22;13961;51.178;4.448;2023-03-13T05:09:07;13.80;99.90
25949;DHT22;13961;51.178;4.448;2023-03-13T05:11:33;13.70;99.90
25949;DHT22;13961;51.178;4.448;2023-03-13T05:13:58;13.80;99.90
25949;DHT22;13961;51.178;4.448;2023-03-13T05:16:24;13.80;99.90
25949;DHT22;13961;51.178;4.448;2023-03-13T05:18:50;13.90;99.90
25949;DHT22;13961;51.178;4.448;2023-03-13T05:21:16;13.90;99.90
25949;DHT22;13961;51.178;4.448;2023-03-13T05:23:41;13.90;99.90
25949;DHT22;13961;51.178;4.448;2023-03-13T05:26:07;13.90;99.90
25949;DHT22;13961;51.178;4.448;2023-03-13T05:28:33;13.80;99.90
25949;DHT22;13961;51.178;4.448;2023-03-13T05:30:58;13.90;99.90
25949;DHT22;13961;51.178;4.448;2023-03-13T05:33:24;14.00;99.90
25949;DHT22;13961;51.178;4.448;2023-03-13T05:35:50;13.80;99.90
25949;DHT22;13961;51.178;4.448;2023-03-13T05:38:16;13.80;99.90
25949;DHT22;13961;51.178;4.448;2023-03-13T05:40:41;13.90;99.90
25949;DHT22;13961;51.178;4.448;2023-03-13T05:43:07;13.90;99.90
25949;DHT22;13961;51.178;4.448;2023-03-13T05:45:33;13.80;99.90
25949;DHT22;13961;51.178;4.448;2023-03-13T05:47:58;13.80;99.90
25949;DHT22;13961;51.178;4.448;2023-03-13T05:50:24;13.60;99.90
25949;DHT22;13961;51.178;4.448;2023-03-13T05:52:50;13.60;99.90
25949;DHT22;13961;51.178;4.448;2023-03-13T05:55:16;13.70;99.90
25949;DHT22;13961;51.178;4.448;2023-03-13T05:57:46;13.80;99.90
25949;DHT22;13961;51.178;4.448;2023-03-13T06:00:14;13.80;99.90
25949;DHT22;13961;51.178;4.448;2023-03-13T06:02:40;13.90;99.90
25949;DHT22;13961;51.178;4.448;2023-03-13T06:05:07;13.90;99.90
25949;DHT22;13961;51.178;4.448;2023-03-13T06:07:32;13.90;99.90
25949;DHT22;13961;51.178;4.448;2023-03-13T06:09:58;13.90;99.90
25949;DHT22;13961;51.178;4.448;2023-03-13T06:12:24;13.90;99.90
25949;DHT22;13961;51.178;4.448;2023-03-13T06:14:49;13.80;99.90
25949;DHT22;13961;51.178;4.448;2023-03-13T06:17:15;13.80;99.90
25949;DHT22;13961;51.178;4.448;2023-03-13T06:19:41;14.00;99.90
25949;DHT22;13961;51.178;4.448;2023-03-13T06:22:07;13.90;99.90
25949;DHT22;13961;51.178;4.448;2023-03-13T06:24:33;13.90;99.90
25949;DHT22;13961;51.178;4.448;2023-03-13T06:26:59;13.80;99.90
25949;DHT22;13961;51.178;4.448;2023-03-13T06:29:24;13.90;99.90
25949;DHT22;13961;51.178;4.448;2023-03-13T06:31:50;13.90;99.90
25949;DHT22;13961;51.178;4.448;2023-03-13T06:34:17;14.00;99.90
25949;DHT22;13961;51.178;4.448;2023-03-13T06:36:45;14.00;99.90
25949;DHT22;13961;51.178;4.448;2023-03-13T06:39:11;14.00;99.90
25949;DHT22;13961;51.178;4.448;2023-03-13T06:41:37;13.90;99.90
25949;DHT22;13961;51.178;4.448;2023-03-13T06:44:04;13.90;99.90
25949;DHT22;13961;51.178;4.448;2023-03-13T06:46:30;13.80;99.90
25949;DHT22;13961;51.178;4.448;2023-03-13T06:48:59;14.00;99.90
25949;DHT22;13961;51.178;4.448;2023-03-13T06:51:25;14.00;99.90
25949;DHT22;13961;51.178;4.448;2023-03-13T06:53:51;14.10;99.90
25949;DHT22;13961;51.178;4.448;2023-03-13T06:56:17;14.10;99.90
25949;DHT22;13961;51.178;4.448;2023-03-13T06:58:46;14.10;99.90
25949;DHT22;13961;51.178;4.448;2023-03-13T07:01:13;14.10;99.90
25949;DHT22;13961;51.178;4.448;2023-03-13T07:03:39;14.10;99.90
25949;DHT22;13961;51.178;4.448;2023-03-13T07:06:06;13.90;99.90
25949;DHT22;13961;51.178;4.448;2023-03-13T07:08:32;13.90;99.90
25949;DHT22;13961;51.178;4.448;2023-03-13T07:11:00;14.00;99.90
25949;DHT22;13961;51.178;4.448;2023-03-13T07:13:26;14.00;99.90
25949;DHT22;13961;51.178;4.448;2023-03-13T07:15:52;14.10;99.90
25949;DHT22;13961;51.178;4.448;2023-03-13T07:18:19;14.00;99.90
25949;DHT22;13961;51.178;4.448;2023-03-13T07:20:51;14.10;99.90
25949;DHT22;13961;51.178;4.448;2023-03-13T07:23:19;14.10;99.90
25949;DHT22;13961;51.178;4.448;2023-03-13T07:25:55;14.20;99.90
25949;DHT22;13961;51.178;4.448;2023-03-13T07:28:22;14.20;99.90
25949;DHT22;13961;51.178;4.448;2023-03-13T07:30:48;14.20;99.90
25949;DHT22;13961;51.178;4.448;2023-03-13T07:33:14;14.20;99.90
25949;DHT22;13961;51.178;4.448;2023-03-13T07:35:40;14.20;99.90
25949;DHT22;13961;51.178;4.448;2023-03-13T07:38:11;14.30;99.90
25949;DHT22;13961;51.178;4.448;2023-03-13T07:40:37;14.30;99.90
25949;DHT22;13961;51.178;4.448;2023-03-13T07:43:02;14.50;99.90
25949;DHT22;13961;51.178;4.448;2023-03-13T07:45:28;14.40;99.90
25949;DHT22;13961;51.178;4.448;2023-03-13T07:47:54;14.40;99.90
25949;DHT22;13961;51.178;4.448;2023-03-13T07:50:19;14.50;99.90
25949;DHT22;13961;51.178;4.448;2023-03-13T07:52:45;14.70;99.90
25949;DHT22;13961;51.178;4.448;2023-03-13T07:55:12;14.90;99.90
25949;DHT22;13961;51.178;4.448;2023-03-13T07:57:38;15.00;99.90
25949;DHT22;13961;51.178;4.448;2023-03-13T08:00:04;15.00;99.90
25949;DHT22;13961;51.178;4.448;2023-03-13T08:02:34;15.10;99.90
25949;DHT22;13961;51.178;4.448;2023-03-13T08:04:59;15.10;99.90
25949;DHT22;13961;51.178;4.448;2023-03-13T08:07:25;15.00;99.90
25949;DHT22;13961;51.178;4.448;2023-03-13T08:09:51;14.90;99.90
25949;DHT22;13961;51.178;4.448;2023-03-13T08:12:16;14.80;99.90
25949;DHT22;13961;51.178;4.448;2023-03-13T08:14:42;14.80;99.90
25949;DHT22;13961;51.178;4.448;2023-03-13T08:17:09;14.80;99.90
25949;DHT22;13961;51.178;4.448;2023-03-13T08:19:34;14.70;99.90
25949;DHT22;13961;51.178;4.448;2023-03-13T08:22:00;14.70;99.90
25949;DHT22;13961;51.178;4.448;2023-03-13T08:24:26;14.50;99.90
25949;DHT22;13961;51.178;4.448;2023-03-13T08:26:52;14.60;99.90
25949;DHT22;13961;51.178;4.448;2023-03-13T08:29:18;14.70;99.90
25949;DHT22;13961;51.178;4.448;2023-03-13T08:31:48;14.70;99.90
25949;DHT22;13961;51.178;4.448;2023-03-13T08:34:16;14.60;99.90
25949;DHT22;13961;51.178;4.448;2023-03-13T08:36:41;14.60;99.90
25949;DHT22;13961;51.178;4.448;2023-03-13T08:39:18;14.70;99.90
25949;DHT22;13961;51.178;4.448;2023-03-13T08:41:44;15.00;99.90
25949;DHT22;13961;51.178;4.448;2023-03-13T08:44:15;15.10;99.90
25949;DHT22;13961;51.178;4.448;2023-03-13T08:46:42;15.40;99.90
25949;DHT22;13961;51.178;4.448;2023-03-13T08:49:08;15.70;99.90
25949;DHT22;13961;51.178;4.448;2023-03-13T08:51:35;15.70;99.90
25949;DHT22;13961;51.178;4.448;2023-03-13T08:54:02;15.60;99.90
25949;DHT22;13961;51.178;4.448;2023-03-13T08:56:29;16.10;99.90
25949;DHT22;13961;51.178;4.448;2023-03-13T08:58:57;16.10;99.90
25949;DHT22;13961;51.178;4.448;2023-03-13T09:01:29;16.30;99.90
25949;DHT22;13961;51.178;4.448;2023-03-13T09:03:55;16.90;99.90
25949;DHT22;13961;51.178;4.448;2023-03-13T09:06:21;16.70;99.90
25949;DHT22;13961;51.178;4.448;2023-03-13T09:08:47;16.90;99.90
25949;DHT22;13961;51.178;4.448;2023-03-13T09:11:15;16.50;99.90
25949;DHT22;13961;51.178;4.448;2023-03-13T09:13:45;16.50;99.90
25949;DHT22;13961;51.178;4.448;2023-03-13T09:16:18;16.50;99.90
25949;DHT22;13961;51.178;4.448;2023-03-13T09:18:44;16.30;99.90
25949;DHT22;13961;51.178;4.448;2023-03-13T09:21:21;16.20;99.90
25949;DHT22;13961;51.178;4.448;2023-03-13T09:23:47;16.50;99.90
25949;DHT22;13961;51.178;4.448;2023-03-13T09:26:13;16.80;99.90
25949;DHT22;13961;51.178;4.448;2023-03-13T09:28:41;16.90;99.90
25949;DHT22;13961;51.178;4.448;2023-03-13T09:31:15;16.80;99.90
25949;DHT22;13961;51.178;4.448;2023-03-13T09:33:42;16.80;99.90
25949;DHT22;13961;51.178;4.448;2023-03-13T09:36:09;16.90;99.90
25949;DHT22;13961;51.178;4.448;2023-03-13T09:38:36;17.00;99.90
25949;DHT22;13961;51.178;4.448;2023-03-13T09:41:33;17.20;99.90
25949;DHT22;13961;51.178;4.448;2023-03-13T09:44:24;17.20;99.90
25949;DHT22;13961;51.178;4.448;2023-03-13T09:47:04;16.90;99.90
25949;DHT22;13961;51.178;4.448;2023-03-13T09:49:41;16.90;99.90
25949;DHT22;13961;51.178;4.448;2023-03-13T09:52:25;16.80;99.90
25949;DHT22;13961;51.178;4.448;2023-03-13T09:57:39;16.90;99.90
25949;DHT22;13961;51.178;4.448;2023-03-13T10:00:38;16.80;99.90
25949;DHT22;13961;51.178;4.448;2023-03-13T10:05:42;16.70;99.90
25949;DHT22;13961;51.178;4.448;2023-03-13T10:08:18;16.70;99.90
25949;DHT22;13961;51.178;4.448;2023-03-13T10:16:25;16.60;99.90
25949;DHT22;13961;51.178;4.448;2023-03-13T10:18:55;16.70;99.90
25949;DHT22;13961;51.178;4.448;2023-03-13T10:21:22;16.70;99.90
25949;DHT22;13961;51.178;4.448;2023-03-13T10:26:28;16.80;99.90
25949;DHT22;13961;51.178;4.448;2023-03-13T10:28:55;16.90;99.90
25949;DHT22;13961;51.178;4.448;2023-03-13T10:31:40;17.00;99.90
25949;DHT22;13961;51.178;4.448;2023-03-13T10:34:12;16.90;99.90
25949;DHT22;13961;51.178;4.448;2023-03-13T10:36:58;17.20;99.90
25949;DHT22;13961;51.178;4.448;2023-03-13T10:39:27;17.00;99.90
25949;DHT22;13961;51.178;4.448;2023-03-13T10:42:09;17.00;99.90
25949;DHT22;13961;51.178;4.448;2023-03-13T10:44:35;17.10;99.90
25949;DHT22;13961;51.178;4.448;2023-03-13T10:47:02;17.00;99.90
25949;DHT22;13961;51.178;4.448;2023-03-13T10:49:30;16.90;99.90
25949;DHT22;13961;51.178;4.448;2023-03-13T10:52:02;16.70;99.90
25949;DHT22;13961;51.178;4.448;2023-03-13T10:59:54;17.50;99.90
25949;DHT22;13961;51.178;4.448;2023-03-13T11:02:38;17.80;99.90
25949;DHT22;13961;51.178;4.448;2023-03-13T11:07:49;18.10;99.90
25949;DHT22;13961;51.178;4.448;2023-03-13T11:10:22;18.30;99.90
25949;DHT22;13961;51.178;4.448;2023-03-13T11:12:50;18.30;99.90
25949;DHT22;13961;51.178;4.448;2023-03-13T11:18:22;18.10;99.90
25949;DHT22;13961;51.178;4.448;2023-03-13T11:20:51;18.10;99.90
25949;DHT22;13961;51.178;4.448;2023-03-13T11:23:27;18.00;99.90
25949;DHT22;13961;51.178;4.448;2023-03-13T11:26:17;18.10;99.90
25949;DHT22;13961;51.178;4.448;2023-03-13T11:29:16;18.00;99.90
25949;DHT22;13961;51.178;4.448;2023-03-13T11:31:53;18.10;99.90
25949;DHT22;13961;51.178;4.448;2023-03-13T11:34:25;18.10;99.90
25949;DHT22;13961;51.178;4.448;2023-03-13T11:37:02;18.30;99.90
25949;DHT22;13961;51.178;4.448;2023-03-13T11:39:40;18.30;99.90
25949;DHT22;13961;51.178;4.448;2023-03-13T11:42:12;18.40;99.90
25949;DHT22;13961;51.178;4.448;2023-03-13T11:51:25;18.60;99.90
25949;DHT22;13961;51.178;4.448;2023-03-13T11:54:16;18.20;99.90
25949;DHT22;13961;51.178;4.448;2023-03-13T11:57:10;18.30;99.90
25949;DHT22;13961;51.178;4.448;2023-03-13T11:59:44;18.30;99.90
25949;DHT22;13961;51.178;4.448;2023-03-13T12:02:48;18.10;99.90
25949;DHT22;13961;51.178;4.448;2023-03-13T12:05:18;17.70;99.90
25949;DHT22;13961;51.178;4.448;2023-03-13T12:08:03;17.60;99.90
25949;DHT22;13961;51.178;4.448;2023-03-13T12:10:40;17.50;99.90
25949;DHT22;13961;51.178;4.448;2023-03-13T12:13:41;17.50;99.90
25949;DHT22;13961;51.178;4.448;2023-03-13T12:16:13;17.70;99.90
25949;DHT22;13961;51.178;4.448;2023-03-13T12:18:42;17.90;99.90
25949;DHT22;13961;51.178;4.448;2023-03-13T12:26:50;18.00;99.90
25949;DHT22;13961;51.178;4.448;2023-03-13T12:29:39;18.50;99.90
25949;DHT22;13961;51.178;4.448;2023-03-13T12:34:58;18.80;99.90
25949;DHT22;13961;51.178;4.448;2023-03-13T12:37:57;18.80;99.90
25949;DHT22;13961;51.178;4.448;2023-03-13T12:43:31;18.90;99.90
25949;DHT22;13961;51.178;4.448;2023-03-13T12:48:47;18.60;99.90
25949;DHT22;13961;51.178;4.448;2023-03-13T12:56:52;18.50;99.90
25949;DHT22;13961;51.178;4.448;2023-03-13T12:59:27;18.70;99.90
25949;DHT22;13961;51.178;4.448;2023-03-13T13:01:58;18.60;99.90
25949;DHT22;13961;51.178;4.448;2023-03-13T13:04:27;18.70;99.90
25949;DHT22;13961;51.178;4.448;2023-03-13T13:11:55;18.40;99.90
25949;DHT22;13961;51.178;4.448;2023-03-13T13:17:02;18.50;99.90
25949;DHT22;13961;51.178;4.448;2023-03-13T13:32:50;18.70;99.90
25949;DHT22;13961;51.178;4.448;2023-03-13T13:35:37;18.70;99.90
25949;DHT22;13961;51.178;4.448;2023-03-13T13:43:36;18.50;99.90
25949;DHT22;13961;51.178;4.448;2023-03-13T13:46:26;18.80;99.90
25949;DHT22;13961;51.178;4.448;2023-03-13T13:51:40;18.70;99.90
25949;DHT22;13961;51.178;4.448;2023-03-13T13:54:31;18.80;99.90
25949;DHT22;13961;51.178;4.448;2023-03-13T13:57:13;18.60;99.90
25949;DHT22;13961;51.178;4.448;2023-03-13T13:59:44;18.60;99.90
25949;DHT22;13961;51.178;4.448;2023-03-13T14:02:31;18.60;99.90
25949;DHT22;13961;51.178;4.448;2023-03-13T14:05:07;18.60;99.90
25949;DHT22;13961;51.178;4.448;2023-03-13T14:12:57;18.30;99.90
25949;DHT22;13961;51.178;4.448;2023-03-13T14:15:28;18.40;99.90
25949;DHT22;13961;51.178;4.448;2023-03-13T14:17:58;18.80;99.90
25949;DHT22;13961;51.178;4.448;2023-03-13T14:20:34;18.50;99.90
25949;DHT22;13961;51.178;4.448;2023-03-13T14:23:05;18.40;99.90
25949;DHT22;13961;51.178;4.448;2023-03-13T14:28:25;18.40;99.90
25949;DHT22;13961;51.178;4.448;2023-03-13T14:30:52;18.30;99.90
25949;DHT22;13961;51.178;4.448;2023-03-13T14:33:18;18.40;99.90
25949;DHT22;13961;51.178;4.448;2023-03-13T14:35:45;18.50;99.90
25949;DHT22;13961;51.178;4.448;2023-03-13T14:38:21;18.60;99.90
25949;DHT22;13961;51.178;4.448;2023-03-13T14:40:49;18.60;99.90
25949;DHT22;13961;51.178;4.448;2023-03-13T14:43:25;18.50;99.90
25949;DHT22;13961;51.178;4.448;2023-03-13T14:45:53;18.50;99.90
25949;DHT22;13961;51.178;4.448;2023-03-13T14:51:14;18.50;99.90
25949;DHT22;13961;51.178;4.448;2023-03-13T14:54:01;18.20;99.90
25949;DHT22;13961;51.178;4.448;2023-03-13T14:56:38;18.10;99.90
25949;DHT22;13961;51.178;4.448;2023-03-13T14:59:18;18.20;99.90
25949;DHT22;13961;51.178;4.448;2023-03-13T15:05:04;18.50;99.90
25949;DHT22;13961;51.178;4.448;2023-03-13T15:07:51;18.50;99.90
25949;DHT22;13961;51.178;4.448;2023-03-13T15:10:20;18.30;99.90
25949;DHT22;13961;51.178;4.448;2023-03-13T15:12:48;18.30;99.90
25949;DHT22;13961;51.178;4.448;2023-03-13T15:15:14;18.40;99.90
25949;DHT22;13961;51.178;4.448;2023-03-13T15:17:40;18.60;99.90
25949;DHT22;13961;51.178;4.448;2023-03-13T15:20:09;18.70;99.90
25949;DHT22;13961;51.178;4.448;2023-03-13T15:22:40;18.70;99.90
25949;DHT22;13961;51.178;4.448;2023-03-13T15:25:18;18.70;99.90
25949;DHT22;13961;51.178;4.448;2023-03-13T15:27:45;18.70;99.90
25949;DHT22;13961;51.178;4.448;2023-03-13T15:30:16;18.60;99.90
25949;DHT22;13961;51.178;4.448;2023-03-13T15:32:42;18.40;99.90
25949;DHT22;13961;51.178;4.448;2023-03-13T15:37:47;18.40;99.90
25949;DHT22;13961;51.178;4.448;2023-03-13T15:40:13;18.30;99.90
25949;DHT22;13961;51.178;4.448;2023-03-13T15:42:40;18.10;99.90
25949;DHT22;13961;51.178;4.448;2023-03-13T15:45:06;18.00;99.90
25949;DHT22;13961;51.178;4.448;2023-03-13T15:47:32;18.10;99.90
25949;DHT22;13961;51.178;4.448;2023-03-13T15:49:57;18.10;99.90
25949;DHT22;13961;51.178;4.448;2023-03-13T15:52:23;18.10;99.90
25949;DHT22;13961;51.178;4.448;2023-03-13T15:54:50;18.10;99.90
25949;DHT22;13961;51.178;4.448;2023-03-13T15:57:21;18.10;99.90
25949;DHT22;13961;51.178;4.448;2023-03-13T15:59:48;17.90;99.90
25949;DHT22;13961;51.178;4.448;2023-03-13T16:02:16;17.80;99.90
25949;DHT22;13961;51.178;4.448;2023-03-13T16:04:44;17.60;99.90
25949;DHT22;13961;51.178;4.448;2023-03-13T16:07:11;17.70;99.90
25949;DHT22;13961;51.178;4.448;2023-03-13T16:09:38;17.70;99.90
25949;DHT22;13961;51.178;4.448;2023-03-13T16:12:04;17.60;99.90
25949;DHT22;13961;51.178;4.448;2023-03-13T16:14:30;17.50;99.90
25949;DHT22;13961;51.178;4.448;2023-03-13T16:16:56;17.60;99.90
25949;DHT22;13961;51.178;4.448;2023-03-13T16:19:22;17.50;99.90
25949;DHT22;13961;51.178;4.448;2023-03-13T16:21:48;17.50;99.90
25949;DHT22;13961;51.178;4.448;2023-03-13T16:24:14;17.70;99.90
25949;DHT22;13961;51.178;4.448;2023-03-13T16:26:42;17.70;99.90
25949;DHT22;13961;51.178;4.448;2023-03-13T16:29:11;17.70;99.90
25949;DHT22;13961;51.178;4.448;2023-03-13T16:31:38;17.70;99.90
25949;DHT22;13961;51.178;4.448;2023-03-13T16:34:05;17.90;99.90
25949;DHT22;13961;51.178;4.448;2023-03-13T16:36:32;17.90;99.90
25949;DHT22;13961;51.178;4.448;2023-03-13T16:39:03;17.70;99.90
25949;DHT22;13961;51.178;4.448;2023-03-13T16:41:30;17.80;99.90
25949;DHT22;13961;51.178;4.448;2023-03-13T16:43:57;17.80;99.90
25949;DHT22;13961;51.178;4.448;2023-03-13T16:46:35;17.80;99.90
25949;DHT22;13961;51.178;4.448;2023-03-13T16:49:01;17.60;99.90
25949;DHT22;13961;51.178;4.448;2023-03-13T16:51:29;17.50;99.90
25949;DHT22;13961;51.178;4.448;2023-03-13T16:53:56;17.40;99.90
25949;DHT22;13961;51.178;4.448;2023-03-13T16:56:36;17.40;99.90
25949;DHT22;13961;51.178;4.448;2023-03-13T16:59:04;17.40;99.90
25949;DHT22;13961;51.178;4.448;2023-03-13T17:01:30;17.50;99.90
25949;DHT22;13961;51.178;4.448;2023-03-13T17:03:59;17.60;99.90
25949;DHT22;13961;51.178;4.448;2023-03-13T17:06:32;17.60;99.90
25949;DHT22;13961;51.178;4.448;2023-03-13T17:09:02;17.60;99.90
25949;DHT22;13961;51.178;4.448;2023-03-13T17:11:28;17.20;99.90
25949;DHT22;13961;51.178;4.448;2023-03-13T17:13:54;17.30;99.90
25949;DHT22;13961;51.178;4.448;2023-03-13T17:16:31;17.10;99.90
25949;DHT22;13961;51.178;4.448;2023-03-13T17:18:58;17.20;99.90
25949;DHT22;13961;51.178;4.448;2023-03-13T17:21:27;17.00;99.90
25949;DHT22;13961;51.178;4.448;2023-03-13T17:24:00;17.00;99.90
25949;DHT22;13961;51.178;4.448;2023-03-13T17:26:28;17.00;99.90
25949;DHT22;13961;51.178;4.448;2023-03-13T17:28:57;17.10;99.90
25949;DHT22;13961;51.178;4.448;2023-03-13T17:31:24;17.00;99.90